| time (UTC) | temp F | wind direction | speed MPH | gust MPH | rain 1hr in | rain 24hr in | rain mn in | humidity % | barometer mb |
| 20260508173904 | 58 | 263 | 1.0 | 5.0 | 0.00 | 0.05 | 0.05 | 66 | 1010.3 |
| 20260508173404 | 58 | 265 | 1.0 | 8.0 | 0.00 | 0.05 | 0.05 | 67 | 1010.3 |
| 20260508172905 | 58 | 261 | 2.0 | 6.0 | 0.00 | 0.05 | 0.05 | 64 | 1010.2 |
| 20260508171904 | 58 | 265 | 0.0 | 5.0 | 0.00 | 0.05 | 0.05 | 65 | 1010.3 |
| 20260508171405 | 58 | 254 | 2.0 | 5.0 | 0.00 | 0.05 | 0.05 | 64 | 1010.4 |
| 20260508170904 | 58 | 189 | 3.0 | 6.0 | 0.00 | 0.05 | 0.05 | 64 | 1010.3 |
| 20260508170405 | 58 | 261 | 4.0 | 9.0 | 0.00 | 0.05 | 0.05 | 62 | 1010.6 |
| 20260508165904 | 58 | 261 | 7.0 | 16.0 | 0.00 | 0.05 | 0.05 | 61 | 1010.7 |
| 20260508165405 | 59 | 252 | 4.0 | 6.0 | 0.00 | 0.05 | 0.05 | 63 | 1010.4 |
| 20260508164904 | 59 | 261 | 6.0 | 12.0 | 0.00 | 0.05 | 0.05 | 60 | 1010.5 |
| 20260508164405 | 59 | 263 | 7.0 | 14.0 | 0.00 | 0.05 | 0.05 | 60 | 1010.6 |
| 20260508163904 | 59 | 267 | 4.0 | 9.0 | 0.00 | 0.05 | 0.05 | 62 | 1010.6 |
| 20260508163404 | 58 | 265 | 7.0 | 17.0 | 0.00 | 0.05 | 0.05 | 62 | 1010.7 |
| 20260508162905 | 58 | 233 | 7.0 | 25.0 | 0.00 | 0.05 | 0.05 | 63 | 1010.8 |
| 20260508162405 | 58 | 255 | 5.0 | 9.0 | 0.00 | 0.05 | 0.05 | 62 | 1010.9 |
| 20260508161904 | 58 | 258 | 0.0 | 3.0 | 0.00 | 0.05 | 0.05 | 64 | 1011.1 |
| 20260508160904 | 59 | 263 | 8.0 | 9.0 | 0.00 | 0.05 | 0.05 | 60 | 1011.0 |
| 20260508160404 | 59 | 265 | 3.0 | 6.0 | 0.00 | 0.05 | 0.05 | 61 | 1011.1 |
| 20260508155904 | 59 | 270 | 6.0 | 12.0 | 0.00 | 0.05 | 0.05 | 63 | 1011.1 |
| 20260508155404 | 58 | 237 | 2.0 | 9.0 | 0.00 | 0.05 | 0.05 | 64 | 1011.1 |
| 20260508154905 | 57 | 271 | 2.0 | 8.0 | 0.00 | 0.05 | 0.05 | 64 | 1011.3 |
| 20260508154404 | 57 | 263 | 1.0 | 3.0 | 0.00 | 0.05 | 0.05 | 65 | 1011.3 |
| 20260508153904 | 57 | 261 | 1.0 | 5.0 | 0.00 | 0.05 | 0.05 | 63 | 1011.3 |
| 20260508152905 | 57 | 262 | 8.0 | 13.0 | 0.00 | 0.05 | 0.05 | 63 | 1011.3 |
| 20260508152405 | 57 | 267 | 5.0 | 8.0 | 0.00 | 0.05 | 0.05 | 64 | 1011.4 |
| 20260508151904 | 57 | 254 | 6.0 | 9.0 | 0.00 | 0.05 | 0.05 | 62 | 1011.3 |
| 20260508151405 | 57 | 257 | 2.0 | 16.0 | 0.00 | 0.05 | 0.05 | 65 | 1011.2 |
| 20260508150904 | 57 | 154 | 4.0 | 9.0 | 0.00 | 0.05 | 0.05 | 67 | 1011.2 |
| 20260508150405 | 57 | 179 | 5.0 | 12.0 | 0.00 | 0.05 | 0.05 | 69 | 1011.2 |
| 20260508145904 | 56 | 179 | 5.0 | 12.0 | 0.00 | 0.05 | 0.05 | 71 | 1011.3 |
| 20260508145405 | 55 | 264 | 6.0 | 12.0 | 0.00 | 0.05 | 0.05 | 68 | 1011.4 |
| 20260508144904 | 55 | 203 | 1.0 | 5.0 | 0.00 | 0.05 | 0.05 | 73 | 1011.4 |
| 20260508144405 | 54 | 255 | 0.0 | 3.0 | 0.00 | 0.05 | 0.05 | 76 | 1011.5 |
| 20260508143904 | 53 | 146 | 1.0 | 3.0 | 0.00 | 0.05 | 0.05 | 79 | 1011.5 |
| 20260508142905 | 51 | 298 | 0.0 | 0.0 | 0.03 | 0.05 | 0.05 | 79 | 1011.8 |
| 20260508142404 | 51 | 298 | 0.0 | 1.0 | 0.03 | 0.05 | 0.05 | 84 | 1011.7 |
| 20260508141904 | 50 | 298 | 0.0 | 0.0 | 0.03 | 0.05 | 0.05 | 88 | 1011.8 |
| 20260508141405 | 50 | 298 | 0.0 | 0.0 | 0.03 | 0.05 | 0.05 | 89 | 1011.9 |
| 20260508140404 | 49 | 298 | 0.0 | 0.0 | 0.03 | 0.05 | 0.05 | 90 | 1011.8 |
| 20260508135904 | 49 | 298 | 0.0 | 0.0 | 0.03 | 0.05 | 0.05 | 89 | 1011.9 |
| 20260508135405 | 49 | 298 | 0.0 | 0.0 | 0.03 | 0.05 | 0.05 | 89 | 1011.9 |
| 20260508134904 | 49 | 298 | 0.0 | 0.0 | 0.03 | 0.05 | 0.05 | 88 | 1012.2 |
| 20260508134405 | 49 | 298 | 0.0 | 0.0 | 0.03 | 0.05 | 0.05 | 88 | 1012.3 |
| 20260508133404 | 50 | 298 | 0.0 | 0.0 | 0.03 | 0.05 | 0.05 | 84 | 1012.3 |
| 20260508132905 | 50 | 298 | 0.0 | 0.0 | 0.00 | 0.02 | 0.02 | 82 | 1012.4 |
| 20260508132404 | 50 | 298 | 0.0 | 0.0 | 0.00 | 0.02 | 0.02 | 80 | 1012.1 |
| 20260508131904 | 50 | 298 | 0.0 | 0.0 | 0.00 | 0.02 | 0.02 | 82 | 1011.7 |
| 20260508131404 | 50 | 298 | 0.0 | 0.0 | 0.00 | 0.02 | 0.02 | 82 | 1011.9 |
| 20260508130904 | 49 | 298 | 0.0 | 0.0 | 0.00 | 0.02 | 0.02 | 86 | 1011.9 |
| 20260508130405 | 49 | 298 | 0.0 | 0.0 | 0.00 | 0.02 | 0.02 | 89 | 1011.9 |
| 20260508125904 | 48 | 298 | 0.0 | 0.0 | 0.00 | 0.02 | 0.02 | 89 | 1012.0 |
| 20260508125404 | 48 | 298 | 0.0 | 0.0 | 0.00 | 0.02 | 0.02 | 89 | 1012.0 |
| 20260508124905 | 48 | 298 | 0.0 | 0.0 | 0.00 | 0.02 | 0.02 | 89 | 1012.0 |
| 20260508124405 | 48 | 298 | 0.0 | 0.0 | 0.00 | 0.02 | 0.02 | 89 | 1012.0 |
| 20260508123905 | 47 | 298 | 0.0 | 0.0 | 0.00 | 0.02 | 0.02 | 89 | 1012.0 |
| 20260508122905 | 47 | 298 | 0.0 | 0.0 | 0.00 | 0.02 | 0.02 | 90 | 1011.7 |
| 20260508122405 | 47 | 298 | 0.0 | 0.0 | 0.00 | 0.02 | 0.02 | 90 | 1011.6 |
| 20260508121904 | 46 | 298 | 0.0 | 0.0 | 0.00 | 0.02 | 0.02 | 91 | 1011.5 |
| 20260508121404 | 46 | 249 | 0.0 | 0.0 | 0.02 | 0.02 | 0.02 | 91 | 1011.5 |
| 20260508120904 | 46 | 249 | 0.0 | 0.0 | 0.02 | 0.02 | 0.02 | 91 | 1011.5 |
| 20260508120404 | 45 | 249 | 0.0 | 0.0 | 0.02 | 0.02 | 0.02 | 90 | 1011.4 |
| 20260508115904 | 45 | 249 | 0.0 | 0.0 | 0.02 | 0.02 | 0.02 | 90 | 1011.3 |
| 20260508115404 | 45 | 249 | 0.0 | 0.0 | 0.02 | 0.02 | 0.02 | 89 | 1011.1 |
| 20260508114904 | 45 | 249 | 0.0 | 0.0 | 0.02 | 0.02 | 0.02 | 89 | 1011.0 |
| 20260508114405 | 45 | 249 | 0.0 | 0.0 | 0.02 | 0.02 | 0.02 | 89 | 1011.2 |
| 20260508113904 | 44 | 249 | 0.0 | 0.0 | 0.02 | 0.02 | 0.02 | 88 | 1011.4 |
| 20260508113405 | 44 | 249 | 0.0 | 0.0 | 0.02 | 0.02 | 0.02 | 88 | 1011.5 |
| 20260508112904 | 44 | 249 | 0.0 | 0.0 | 0.02 | 0.02 | 0.02 | 88 | 1011.4 |
| 20260508111904 | 44 | 239 | 0.0 | 0.0 | 0.02 | 0.02 | 0.02 | 86 | 1011.5 |
| 20260508111404 | 43 | 240 | 0.0 | 0.0 | 0.00 | 0.00 | 0.00 | 87 | 1011.7 |
| 20260508110904 | 43 | 240 | 0.0 | 0.0 | 0.00 | 0.00 | 0.00 | 86 | 1011.4 |
| 20260508110404 | 43 | 240 | 0.0 | 0.0 | 0.00 | 0.00 | 0.00 | 85 | 1011.3 |
| 20260508105904 | 43 | 240 | 0.0 | 0.0 | 0.00 | 0.00 | 0.00 | 85 | 1011.2 |
| 20260508104904 | 43 | 240 | 0.0 | 0.0 | 0.00 | 0.00 | 0.00 | 83 | 1011.0 |
| 20260508104405 | 43 | 240 | 0.0 | 0.0 | 0.00 | 0.00 | 0.00 | 84 | 1011.1 |
| 20260508103904 | 43 | 240 | 0.0 | 0.0 | 0.00 | 0.00 | 0.00 | 83 | 1011.0 |
| 20260508102904 | 43 | 240 | 0.0 | 0.0 | 0.00 | 0.00 | 0.00 | 81 | 1010.9 |
| 20260508101904 | 44 | 239 | 0.0 | 0.0 | 0.00 | 0.00 | 0.00 | 81 | 1011.0 |
| 20260508101405 | 44 | 239 | 0.0 | 0.0 | 0.00 | 0.00 | 0.00 | 80 | 1011.0 |
| 20260508100904 | 44 | 239 | 0.0 | 0.0 | 0.00 | 0.00 | 0.00 | 80 | 1011.0 |
| 20260508095904 | 44 | 239 | 0.0 | 0.0 | 0.00 | 0.00 | 0.00 | 79 | 1011.1 |
| 20260508095404 | 44 | 239 | 0.0 | 0.0 | 0.00 | 0.00 | 0.00 | 78 | 1011.2 |
| 20260508094904 | 45 | 239 | 0.0 | 0.0 | 0.00 | 0.00 | 0.00 | 78 | 1011.1 |
| 20260508094405 | 45 | 239 | 0.0 | 0.0 | 0.00 | 0.00 | 0.00 | 78 | 1011.0 |
| 20260508093405 | 45 | 239 | 0.0 | 0.0 | 0.00 | 0.00 | 0.00 | 77 | 1011.0 |
| 20260508092904 | 45 | 241 | 0.0 | 0.0 | 0.00 | 0.00 | 0.00 | 77 | 1011.0 |
| 20260508092404 | 46 | 241 | 0.0 | 0.0 | 0.00 | 0.00 | 0.00 | 77 | 1011.0 |
| 20260508091904 | 46 | 241 | 0.0 | 0.0 | 0.00 | 0.00 | 0.00 | 77 | 1011.1 |
| 20260508091404 | 46 | 241 | 0.0 | 0.0 | 0.00 | 0.00 | 0.00 | 76 | 1011.1 |
| 20260508090904 | 46 | 241 | 0.0 | 0.0 | 0.00 | 0.00 | 0.00 | 76 | 1011.2 |
| 20260508090404 | 46 | 241 | 0.0 | 0.0 | 0.00 | 0.00 | 0.00 | 76 | 1011.2 |
| 20260508085904 | 46 | 241 | 0.0 | 0.0 | 0.00 | 0.00 | 0.00 | 76 | 1011.2 |
| 20260508085404 | 47 | 241 | 0.0 | 0.0 | 0.00 | 0.00 | 0.00 | 75 | 1011.1 |
| 20260508084904 | 47 | 241 | 0.0 | 0.0 | 0.00 | 0.00 | 0.00 | 75 | 1011.1 |
| 20260508084404 | 47 | 241 | 0.0 | 0.0 | 0.00 | 0.00 | 0.00 | 74 | 1011.2 |
| 20260508083904 | 47 | 240 | 0.0 | 0.0 | 0.00 | 0.00 | 0.00 | 75 | 1011.2 |
| 20260508083404 | 47 | 240 | 0.0 | 0.0 | 0.00 | 0.00 | 0.00 | 75 | 1011.2 |
| 20260508082904 | 47 | 247 | 0.0 | 0.0 | 0.00 | 0.00 | 0.00 | 75 | 1011.2 |
| 20260508081904 | 47 | 263 | 0.0 | 0.0 | 0.00 | 0.00 | 0.00 | 75 | 1011.3 |
| 20260508081404 | 47 | 259 | 0.0 | 0.0 | 0.00 | 0.00 | 0.00 | 76 | 1011.3 |
| 20260508080905 | 47 | 240 | 2.0 | 3.0 | 0.00 | 0.00 | 0.00 | 76 | 1011.3 |
| 20260508080404 | 46 | 266 | 3.0 | 6.0 | 0.00 | 0.00 | 0.00 | 76 | 1011.2 |
| 20260508075904 | 45 | 200 | 0.0 | 3.0 | 0.00 | 0.00 | 0.00 | 78 | 1011.2 |
| 20260508075404 | 44 | 222 | 0.0 | 3.0 | 0.00 | 0.00 | 0.00 | 80 | 1011.2 |
| 20260508074904 | 44 | 251 | 0.0 | 3.0 | 0.00 | 0.00 | 0.00 | 83 | 1011.1 |
| 20260508074404 | 44 | 250 | 0.0 | 0.0 | 0.00 | 0.00 | 0.00 | 83 | 1011.2 |
| 20260508073905 | 43 | 250 | 0.0 | 0.0 | 0.00 | 0.00 | 0.00 | 83 | 1011.3 |
| 20260508073405 | 43 | 250 | 0.0 | 0.0 | 0.00 | 0.00 | 0.00 | 84 | 1011.3 |
| 20260508072904 | 43 | 250 | 0.0 | 0.0 | 0.00 | 0.00 | 0.00 | 84 | 1011.2 |
| 20260508072404 | 43 | 250 | 0.0 | 0.0 | 0.00 | 0.00 | 0.00 | 85 | 1011.3 |
| 20260508071905 | 43 | 250 | 0.0 | 0.0 | 0.00 | 0.00 | 0.00 | 85 | 1011.2 |
| 20260508071405 | 43 | 250 | 0.0 | 0.0 | 0.00 | 0.00 | 0.00 | 85 | 1011.2 |
| 20260508070904 | 43 | 250 | 0.0 | 0.0 | 0.00 | 0.00 | 0.00 | 85 | 1011.2 |
| 20260508070404 | 42 | 250 | 0.0 | 0.0 | 0.00 | 0.00 | 0.00 | 84 | 1011.3 |
| 20260508065904 | 42 | 250 | 0.0 | 0.0 | 0.00 | 0.00 | 0.00 | 84 | 1011.4 |
| 20260508065406 | 42 | 250 | 0.0 | 0.0 | 0.00 | 0.00 | 0.00 | 84 | 1011.4 |
| 20260508064905 | 42 | 250 | 0.0 | 0.0 | 0.00 | 0.00 | 0.00 | 84 | 1011.4 |
| 20260508064404 | 42 | 250 | 0.0 | 0.0 | 0.00 | 0.00 | 0.00 | 83 | 1011.4 |
| 20260508063904 | 42 | 250 | 0.0 | 0.0 | 0.00 | 0.00 | 0.00 | 82 | 1011.4 |
| 20260508063404 | 42 | 250 | 0.0 | 0.0 | 0.00 | 0.00 | 0.00 | 83 | 1011.5 |
| 20260508062904 | 42 | 250 | 0.0 | 0.0 | 0.00 | 0.00 | 0.00 | 83 | 1011.5 |
| 20260508062405 | 42 | 250 | 0.0 | 0.0 | 0.00 | 0.00 | 0.00 | 83 | 1011.5 |
| 20260508061904 | 42 | 250 | 0.0 | 0.0 | 0.00 | 0.00 | 0.00 | 83 | 1011.6 |
| 20260508061404 | 42 | 250 | 0.0 | 0.0 | 0.00 | 0.00 | 0.00 | 82 | 1011.6 |
| 20260508060904 | 42 | 250 | 0.0 | 0.0 | 0.00 | 0.00 | 0.00 | 82 | 1011.6 |
| 20260508060405 | 41 | 250 | 0.0 | 0.0 | 0.00 | 0.00 | 0.00 | 82 | 1011.6 |
| 20260508055904 | 41 | 250 | 0.0 | 0.0 | 0.00 | 0.00 | 0.00 | 82 | 1011.8 |
| 20260508055404 | 41 | 250 | 0.0 | 0.0 | 0.00 | 0.00 | 0.00 | 82 | 1011.7 |
| 20260508054905 | 41 | 250 | 0.0 | 0.0 | 0.00 | 0.00 | 0.00 | 82 | 1011.8 |
| 20260508054404 | 41 | 250 | 0.0 | 0.0 | 0.00 | 0.00 | 0.00 | 82 | 1011.9 |
| 20260508053904 | 41 | 250 | 0.0 | 0.0 | 0.00 | 0.00 | 0.00 | 82 | 1012.0 |
| 20260508052904 | 41 | 250 | 0.0 | 0.0 | 0.00 | 0.00 | 0.00 | 81 | 1012.1 |
| 20260508051904 | 41 | 250 | 0.0 | 0.0 | 0.00 | 0.00 | 0.00 | 81 | 1012.3 |
| 20260508051404 | 41 | 250 | 0.0 | 0.0 | 0.00 | 0.00 | 0.00 | 81 | 1012.4 |
| 20260508050904 | 41 | 250 | 0.0 | 0.0 | 0.00 | 0.00 | 0.00 | 81 | 1012.3 |
| 20260508050404 | 41 | 250 | 0.0 | 0.0 | 0.00 | 0.00 | 0.00 | 82 | 1012.3 |
| 20260508045905 | 41 | 250 | 0.0 | 0.0 | 0.00 | 0.00 | 0.00 | 82 | 1012.2 |
| 20260508045404 | 41 | 250 | 0.0 | 0.0 | 0.00 | 0.00 | 0.00 | 82 | 1012.2 |
| 20260508044904 | 41 | 250 | 0.0 | 0.0 | 0.00 | 0.00 | 0.00 | 82 | 1012.2 |
| 20260508044405 | 41 | 250 | 0.0 | 0.0 | 0.00 | 0.00 | 0.00 | 81 | 1012.2 |
| 20260508043904 | 40 | 250 | 0.0 | 0.0 | 0.00 | 0.00 | 0.00 | 82 | 1012.2 |
| 20260508043404 | 40 | 250 | 0.0 | 0.0 | 0.00 | 0.00 | 0.00 | 82 | 1012.1 |
| 20260508042904 | 40 | 250 | 0.0 | 0.0 | 0.00 | 0.00 | 0.00 | 81 | 1012.1 |
| 20260508042405 | 40 | 250 | 0.0 | 0.0 | 0.00 | 0.00 | 0.00 | 81 | 1012.1 |
| 20260508035905 | 40 | 250 | 0.0 | 0.0 | 0.00 | 0.00 | 0.00 | 80 | 1012.2 |
| 20260508035404 | 40 | 250 | 0.0 | 0.0 | 0.00 | 0.00 | 0.00 | 79 | 1012.2 |
| 20260508034904 | 40 | 250 | 0.0 | 0.0 | 0.00 | 0.00 | 0.00 | 79 | 1012.1 |
| 20260508033905 | 40 | 250 | 0.0 | 0.0 | 0.00 | 0.00 | 0.00 | 78 | 1012.0 |
| 20260508033404 | 40 | 250 | 0.0 | 0.0 | 0.00 | 0.00 | 0.00 | 78 | 1012.1 |
| 20260508032904 | 41 | 250 | 0.0 | 0.0 | 0.00 | 0.00 | 0.00 | 77 | 1012.0 |
| 20260508032404 | 41 | 250 | 0.0 | 0.0 | 0.00 | 0.00 | 0.00 | 77 | 1012.0 |
| 20260508031905 | 41 | 250 | 0.0 | 0.0 | 0.00 | 0.00 | 0.00 | 75 | 1012.0 |
| 20260508031404 | 41 | 250 | 0.0 | 0.0 | 0.00 | 0.00 | 0.00 | 76 | 1012.0 |
| 20260508030905 | 41 | 250 | 0.0 | 0.0 | 0.00 | 0.00 | 0.00 | 74 | 1012.0 |
| 20260508030405 | 41 | 250 | 0.0 | 0.0 | 0.00 | 0.00 | 0.00 | 75 | 1012.0 |
| 20260508025904 | 42 | 250 | 0.0 | 0.0 | 0.00 | 0.00 | 0.00 | 73 | 1012.0 |
| 20260508025407 | 42 | 250 | 0.0 | 0.0 | 0.00 | 0.00 | 0.00 | 73 | 1012.1 |
| 20260508024404 | 42 | 250 | 0.0 | 0.0 | 0.00 | 0.00 | 0.00 | 72 | 1012.1 |
| 20260508023904 | 42 | 250 | 0.0 | 0.0 | 0.00 | 0.00 | 0.00 | 72 | 1012.1 |
| 20260508023405 | 43 | 250 | 0.0 | 0.0 | 0.00 | 0.00 | 0.00 | 71 | 1012.1 |
| 20260508022904 | 43 | 250 | 0.0 | 0.0 | 0.00 | 0.00 | 0.00 | 71 | 1012.0 |
| 20260508022404 | 43 | 250 | 0.0 | 0.0 | 0.00 | 0.00 | 0.00 | 70 | 1012.0 |
| 20260508021904 | 44 | 250 | 0.0 | 0.0 | 0.00 | 0.00 | 0.00 | 69 | 1012.0 |
| 20260508021404 | 44 | 250 | 0.0 | 0.0 | 0.00 | 0.00 | 0.00 | 67 | 1011.9 |
| 20260508020905 | 44 | 250 | 0.0 | 0.0 | 0.00 | 0.00 | 0.00 | 67 | 1011.9 |
| 20260508020404 | 45 | 250 | 0.0 | 0.0 | 0.00 | 0.00 | 0.00 | 66 | 1012.0 |
| 20260508015904 | 45 | 250 | 0.0 | 0.0 | 0.00 | 0.00 | 0.00 | 67 | 1012.0 |
| 20260508015404 | 45 | 250 | 0.0 | 0.0 | 0.00 | 0.00 | 0.00 | 64 | 1012.0 |
| 20260508014405 | 46 | 250 | 0.0 | 0.0 | 0.00 | 0.00 | 0.00 | 59 | 1011.9 |
| 20260508013904 | 46 | 250 | 0.0 | 0.0 | 0.00 | 0.00 | 0.00 | 58 | 1011.8 |
| 20260508013404 | 47 | 250 | 0.0 | 0.0 | 0.00 | 0.00 | 0.00 | 58 | 1011.8 |
| 20260508012904 | 47 | 250 | 0.0 | 0.0 | 0.00 | 0.00 | 0.00 | 57 | 1011.8 |
| 20260508011904 | 48 | 250 | 0.0 | 0.0 | 0.00 | 0.00 | 0.00 | 56 | 1011.8 |
| 20260508011405 | 48 | 250 | 0.0 | 0.0 | 0.00 | 0.00 | 0.00 | 56 | 1011.7 |
| 20260508010904 | 49 | 250 | 0.0 | 0.0 | 0.00 | 0.00 | 0.00 | 52 | 1011.7 |
| 20260508005904 | 50 | 250 | 0.0 | 0.0 | 0.00 | 0.00 | 0.00 | 50 | 1011.7 |
| 20260508005405 | 50 | 250 | 0.0 | 0.0 | 0.00 | 0.00 | 0.00 | 48 | 1011.7 |
| 20260508004904 | 51 | 250 | 0.0 | 0.0 | 0.00 | 0.00 | 0.00 | 49 | 1011.7 |
| 20260508004404 | 51 | 250 | 0.0 | 0.0 | 0.00 | 0.00 | 0.00 | 48 | 1011.7 |
| 20260508003904 | 51 | 250 | 0.0 | 0.0 | 0.00 | 0.00 | 0.00 | 47 | 1011.7 |
| 20260508003404 | 51 | 250 | 0.0 | 1.0 | 0.00 | 0.00 | 0.00 | 46 | 1011.6 |
| 20260508002904 | 51 | 250 | 0.0 | 0.0 | 0.00 | 0.00 | 0.00 | 45 | 1011.5 |
| 20260508002405 | 51 | 245 | 0.0 | 0.0 | 0.00 | 0.00 | 0.00 | 45 | 1011.5 |
| 20260508001904 | 52 | 235 | 0.0 | 0.0 | 0.00 | 0.00 | 0.00 | 48 | 1011.3 |
| 20260508001404 | 52 | 236 | 0.0 | 3.0 | 0.00 | 0.00 | 0.00 | 45 | 1011.2 |
| 20260508000904 | 52 | 234 | 0.0 | 1.0 | 0.00 | 0.01 | 0.00 | 48 | 1011.2 |
| 20260508000405 | 52 | 236 | 0.0 | 0.0 | 0.00 | 0.01 | 0.00 | 45 | 1011.4 |
| 20260507235904 | 52 | 242 | 0.0 | 3.0 | 0.00 | 0.01 | 0.00 | 47 | 1011.3 |
| 20260507235404 | 53 | 250 | 0.0 | 0.0 | 0.00 | 0.01 | 0.00 | 46 | 1011.2 |
| 20260507234904 | 53 | 256 | 1.0 | 9.0 | 0.00 | 0.01 | 0.00 | 43 | 1011.2 |
| 20260507234404 | 53 | 350 | 0.0 | 5.0 | 0.00 | 0.01 | 0.00 | 46 | 1011.2 |
| 20260507233904 | 53 | 241 | 3.0 | 12.0 | 0.00 | 0.01 | 0.00 | 42 | 1011.3 |
| 20260507233405 | 54 | 271 | 2.0 | 21.0 | 0.00 | 0.01 | 0.00 | 42 | 1011.2 |
| 20260507232404 | 54 | 252 | 1.0 | 5.0 | 0.00 | 0.01 | 0.00 | 42 | 1011.0 |
| 20260507231904 | 55 | 250 | 2.0 | 6.0 | 0.00 | 0.01 | 0.00 | 43 | 1011.1 |
| 20260507231404 | 55 | 256 | 0.0 | 6.0 | 0.00 | 0.01 | 0.00 | 44 | 1011.0 |
| 20260507230904 | 55 | 255 | 3.0 | 8.0 | 0.00 | 0.01 | 0.00 | 44 | 1010.9 |
| 20260507230404 | 55 | 234 | 3.0 | 6.0 | 0.00 | 0.01 | 0.00 | 44 | 1011.2 |
| 20260507225404 | 55 | 259 | 4.0 | 16.0 | 0.00 | 0.01 | 0.00 | 45 | 1011.1 |
| 20260507224904 | 55 | 272 | 1.0 | 17.0 | 0.00 | 0.01 | 0.00 | 50 | 1011.1 |
| 20260507224405 | 55 | 291 | 2.0 | 17.0 | 0.00 | 0.01 | 0.00 | 48 | 1011.2 |
| 20260507223905 | 55 | 216 | 0.0 | 8.0 | 0.00 | 0.01 | 0.00 | 51 | 1011.1 |
| 20260507223404 | 55 | 263 | 3.0 | 12.0 | 0.00 | 0.01 | 0.00 | 52 | 1011.1 |
| 20260507222904 | 54 | 252 | 2.0 | 9.0 | 0.00 | 0.01 | 0.00 | 52 | 1011.2 |
| 20260507222404 | 54 | 250 | 3.0 | 12.0 | 0.00 | 0.01 | 0.00 | 51 | 1011.1 |
| 20260507221904 | 54 | 253 | 1.0 | 5.0 | 0.00 | 0.01 | 0.00 | 53 | 1011.0 |
| 20260507221404 | 54 | 235 | 2.0 | 16.0 | 0.00 | 0.01 | 0.00 | 52 | 1011.1 |
| 20260507220904 | 55 | 199 | 1.0 | 12.0 | 0.00 | 0.01 | 0.00 | 53 | 1011.0 |
| 20260507220405 | 55 | 179 | 1.0 | 8.0 | 0.00 | 0.01 | 0.00 | 53 | 1010.9 |
| 20260507215904 | 55 | 125 | 0.0 | 1.0 | 0.00 | 0.01 | 0.00 | 54 | 1010.8 |
| 20260507215404 | 55 | 48 | 0.0 | 3.0 | 0.00 | 0.01 | 0.00 | 52 | 1010.6 |
| 20260507214904 | 55 | 317 | 0.0 | 0.0 | 0.00 | 0.01 | 0.00 | 52 | 1010.7 |
| 20260507214404 | 55 | 319 | 0.0 | 8.0 | 0.00 | 0.01 | 0.00 | 52 | 1010.6 |
| 20260507213905 | 55 | 247 | 0.0 | 6.0 | 0.00 | 0.01 | 0.00 | 54 | 1010.6 |
| 20260507213404 | 55 | 269 | 3.0 | 17.0 | 0.00 | 0.01 | 0.00 | 50 | 1010.4 |
| 20260507212905 | 55 | 194 | 0.0 | 5.0 | 0.00 | 0.01 | 0.00 | 50 | 1010.2 |
| 20260507212404 | 56 | 267 | 0.0 | 3.0 | 0.00 | 0.01 | 0.00 | 48 | 1010.1 |
| 20260507211904 | 56 | 229 | 5.0 | 12.0 | 0.00 | 0.01 | 0.00 | 48 | 1010.1 |
| 20260507211404 | 56 | 255 | 0.0 | 0.0 | 0.00 | 0.01 | 0.00 | 50 | 1010.1 |
| 20260507210904 | 57 | 222 | 0.0 | 0.0 | 0.00 | 0.01 | 0.00 | 49 | 1009.9 |
| 20260507210404 | 57 | 128 | 0.0 | 3.0 | 0.00 | 0.01 | 0.00 | 49 | 1010.1 |
| 20260507205905 | 58 | 283 | 2.0 | 6.0 | 0.00 | 0.01 | 0.00 | 45 | 1009.9 |
| 20260507205404 | 57 | 244 | 0.0 | 12.0 | 0.00 | 0.01 | 0.00 | 49 | 1009.8 |
| 20260507204904 | 57 | 258 | 5.0 | 14.0 | 0.00 | 0.01 | 0.00 | 45 | 1009.7 |
| 20260507204404 | 57 | 259 | 1.0 | 9.0 | 0.00 | 0.01 | 0.00 | 49 | 1009.7 |
| 20260507203904 | 57 | 254 | 1.0 | 8.0 | 0.00 | 0.01 | 0.00 | 48 | 1009.7 |
| 20260507203404 | 57 | 251 | 3.0 | 9.0 | 0.00 | 0.01 | 0.00 | 44 | 1009.8 |
| 20260507202404 | 58 | 275 | 1.0 | 8.0 | 0.00 | 0.01 | 0.00 | 48 | 1009.8 |
| 20260507201904 | 59 | 256 | 1.0 | 6.0 | 0.00 | 0.01 | 0.00 | 43 | 1009.6 |
| 20260507201404 | 59 | 237 | 2.0 | 12.0 | 0.00 | 0.01 | 0.00 | 42 | 1009.6 |
| 20260507200904 | 60 | 286 | 0.0 | 8.0 | 0.00 | 0.01 | 0.00 | 45 | 1009.7 |
| 20260507200404 | 60 | 260 | 3.0 | 14.0 | 0.00 | 0.01 | 0.00 | 46 | 1009.8 |
| 20260507195904 | 60 | 257 | 6.0 | 16.0 | 0.00 | 0.01 | 0.00 | 44 | 1009.9 |
| 20260507195404 | 59 | 280 | 2.0 | 8.0 | 0.00 | 0.01 | 0.00 | 46 | 1010.0 |
| 20260507194905 | 58 | 295 | 1.0 | 8.0 | 0.00 | 0.01 | 0.00 | 50 | 1010.2 |
| 20260507194404 | 57 | 256 | 2.0 | 12.0 | 0.00 | 0.01 | 0.00 | 47 | 1010.3 |
| 20260507193904 | 57 | 271 | 4.0 | 16.0 | 0.00 | 0.01 | 0.00 | 49 | 1010.3 |
| 20260507193404 | 57 | 247 | 1.0 | 9.0 | 0.00 | 0.01 | 0.00 | 50 | 1010.3 |
| 20260507192904 | 57 | 258 | 5.0 | 17.0 | 0.00 | 0.01 | 0.00 | 48 | 1010.4 |
| 20260507192404 | 57 | 250 | 2.0 | 17.0 | 0.00 | 0.01 | 0.00 | 49 | 1010.3 |
| 20260507191904 | 57 | 278 | 5.0 | 12.0 | 0.00 | 0.01 | 0.00 | 46 | 1010.3 |
| 20260507191404 | 57 | 288 | 0.0 | 8.0 | 0.00 | 0.01 | 0.00 | 47 | 1010.3 |
| 20260507190904 | 57 | 243 | 3.0 | 8.0 | 0.00 | 0.01 | 0.00 | 47 | 1010.3 |
| 20260507190404 | 57 | 299 | 2.0 | 14.0 | 0.00 | 0.01 | 0.00 | 47 | 1010.2 |
| 20260507185904 | 57 | 228 | 0.0 | 6.0 | 0.00 | 0.01 | 0.00 | 50 | 1010.2 |
| 20260507185404 | 57 | 248 | 1.0 | 17.0 | 0.00 | 0.01 | 0.00 | 46 | 1010.2 |
| 20260507184904 | 58 | 273 | 6.0 | 14.0 | 0.00 | 0.01 | 0.00 | 44 | 1010.1 |
| 20260507184404 | 58 | 231 | 1.0 | 6.0 | 0.00 | 0.01 | 0.00 | 43 | 1010.0 |
| 20260507183904 | 58 | 265 | 0.0 | 5.0 | 0.00 | 0.01 | 0.00 | 45 | 1010.0 |
| 20260507183404 | 58 | 254 | 2.0 | 9.0 | 0.00 | 0.01 | 0.00 | 44 | 1010.1 |
| 20260507182907 | 59 | 214 | 0.0 | 1.0 | 0.00 | 0.01 | 0.00 | 42 | 1009.9 |
| 20260507181904 | 57 | 259 | 0.0 | 0.0 | 0.00 | 0.01 | 0.00 | 48 | 1010.0 |
| 20260507181404 | 57 | 259 | 0.0 | 6.0 | 0.00 | 0.01 | 0.00 | 44 | 1010.1 |
| 20260507180904 | 57 | 252 | 0.0 | 0.0 | 0.00 | 0.01 | 0.00 | 47 | 1010.1 |
| 20260507180404 | 58 | 252 | 0.0 | 0.0 | 0.00 | 0.01 | 0.00 | 45 | 1010.0 |
| 20260507175904 | 58 | 252 | 0.0 | 5.0 | 0.00 | 0.01 | 0.00 | 44 | 1010.1 |
| 20260507175404 | 58 | 256 | 2.0 | 14.0 | 0.00 | 0.01 | 0.00 | 43 | 1010.0 |
| 20260507174904 | 57 | 293 | 3.0 | 12.0 | 0.00 | 0.01 | 0.00 | 43 | 1010.1 |
| 20260507174404 | 57 | 252 | 3.0 | 6.0 | 0.00 | 0.01 | 0.00 | 43 | 1010.1 |